Terminal Aerodrome Forecast
Issued by NWS

Home | Current Version | Previous Version | Text Only | Print | Product List | Glossary On
Versions: 1 2 3 4 5 6 7 8 9 10 11 12
000
FTUS45 KVEF 120520
TAFHND
TAF
KHND 120520Z 1206/1306 17007KT P6SM FEW250
     FM121600 VRB05KT P6SM FEW250
     FM130200 17007KT P6SM FEW250=

USA.gov is the U.S. government's official web portal to all federal, state and local government web resources and services.